Time,TemperatureF,DewpointF,PressureIn,WindDirection,WindDirectionDegrees,WindSpeedMPH,WindSpeedGustMPH,Humidity,HourlyPrecipIn,Conditions,Clouds,dailyrainin,SoftwareType,DateUTC
2013-01-20 00:00:00,46.0,28.0,30.00,SSW,210,24.0,28.0,49,-99.99,,,-99.99,,2013-01-20 05:00:00,
2013-01-20 00:12:00,46.0,28.0,30.00,SSW,210,24.0,28.0,49,-99.99,,,-99.99,,2013-01-20 05:12:00,
2013-01-20 00:22:00,46.0,28.0,30.00,SSW,210,24.0,28.0,49,-99.99,,,-99.99,,2013-01-20 05:22:00,
2013-01-20 00:32:00,46.0,28.0,30.00,SSW,210,24.0,28.0,49,-99.99,,,-99.99,,2013-01-20 05:32:00,
2013-01-20 00:42:00,46.0,28.0,30.00,SSW,210,24.0,28.0,49,-99.99,,,-99.99,,2013-01-20 05:42:00,
2013-01-20 00:52:00,46.0,28.0,30.00,SSW,210,24.0,28.0,49,-99.99,,,-99.99,,2013-01-20 05:52:00,
2013-01-20 01:00:00,45.0,30.0,29.96,SSW,200,24.0,29.0,54,-99.99,,,-99.99,,2013-01-20 06:00:00,
2013-01-20 01:11:00,45.0,30.0,29.96,SSW,200,24.0,29.0,54,-99.99,,,-99.99,,2013-01-20 06:11:00,
2013-01-20 01:22:00,45.0,30.0,29.96,SSW,200,24.0,29.0,54,-99.99,,,-99.99,,2013-01-20 06:22:00,
2013-01-20 01:32:00,45.0,30.0,29.96,SSW,200,24.0,29.0,54,-99.99,,,-99.99,,2013-01-20 06:32:00,
2013-01-20 01:42:00,45.0,30.0,29.96,SSW,200,24.0,29.0,54,-99.99,,,-99.99,,2013-01-20 06:42:00,
2013-01-20 01:52:00,45.0,30.0,29.96,SSW,200,24.0,29.0,54,-99.99,,,-99.99,,2013-01-20 06:52:00,
2013-01-20 02:00:00,46.0,28.0,29.95,SSW,210,21.0,24.0,47,-99.99,,,-99.99,,2013-01-20 07:00:00,
2013-01-20 02:22:00,46.0,28.0,29.95,SSW,210,21.0,24.0,47,-99.99,,,-99.99,,2013-01-20 07:22:00,
2013-01-20 02:32:00,46.0,28.0,29.95,SSW,210,21.0,24.0,47,-99.99,,,-99.99,,2013-01-20 07:32:00,
2013-01-20 02:42:00,46.0,28.0,29.95,SSW,210,21.0,24.0,47,-99.99,,,-99.99,,2013-01-20 07:42:00,
2013-01-20 02:52:00,46.0,28.0,29.95,SSW,210,21.0,24.0,47,-99.99,,,-99.99,,2013-01-20 07:52:00,
2013-01-20 03:00:00,46.0,29.0,29.93,SSW,200,18.0,21.0,49,-99.99,,,-99.99,,2013-01-20 08:00:00,
2013-01-20 03:11:00,46.0,29.0,29.93,SSW,200,18.0,21.0,49,-99.99,,,-99.99,,2013-01-20 08:11:00,
2013-01-20 03:21:00,46.0,29.0,29.93,SSW,200,18.0,21.0,49,-99.99,,,-99.99,,2013-01-20 08:21:00,
2013-01-20 03:32:00,46.0,29.0,29.93,SSW,200,18.0,21.0,49,-99.99,,,-99.99,,2013-01-20 08:32:00,
2013-01-20 03:42:00,46.0,29.0,29.93,SSW,200,18.0,21.0,49,-99.99,,,-99.99,,2013-01-20 08:42:00,
2013-01-20 03:52:00,46.0,29.0,29.93,SSW,200,18.0,21.0,49,-99.99,,,-99.99,,2013-01-20 08:52:00,
2013-01-20 04:00:00,45.0,30.0,29.91,SSW,200,23.0,24.0,54,-99.99,,,-99.99,,2013-01-20 09:00:00,
2013-01-20 04:22:00,45.0,30.0,29.91,SSW,200,23.0,24.0,54,-99.99,,,-99.99,,2013-01-20 09:22:00,
2013-01-20 04:32:00,45.0,30.0,29.91,SSW,200,23.0,24.0,54,-99.99,,,-99.99,,2013-01-20 09:32:00,
2013-01-20 04:42:00,45.0,30.0,29.91,SSW,200,23.0,24.0,54,-99.99,,,-99.99,,2013-01-20 09:42:00,
2013-01-20 04:52:00,45.0,30.0,29.91,SSW,200,23.0,24.0,54,-99.99,,,-99.99,,2013-01-20 09:52:00,
2013-01-20 05:00:00,44.0,29.0,29.90,SSW,200,14.0,15.0,55,-99.99,,,-99.99,,2013-01-20 10:00:00,
2013-01-20 05:11:00,44.0,29.0,29.90,SSW,200,14.0,15.0,55,-99.99,,,-99.99,,2013-01-20 10:11:00,
2013-01-20 05:22:00,44.0,29.0,29.90,SSW,200,14.0,15.0,55,-99.99,,,-99.99,,2013-01-20 10:22:00,
2013-01-20 05:32:00,44.0,29.0,29.90,SSW,200,14.0,15.0,55,-99.99,,,-99.99,,2013-01-20 10:32:00,
2013-01-20 05:42:00,44.0,29.0,29.90,SSW,200,14.0,15.0,55,-99.99,,,-99.99,,2013-01-20 10:42:00,
2013-01-20 05:52:00,44.0,29.0,29.90,SSW,200,14.0,15.0,55,-99.99,,,-99.99,,2013-01-20 10:52:00,
2013-01-20 06:00:00,44.0,29.0,29.89,SSW,200,14.0,15.0,54,-99.99,,,-99.99,,2013-01-20 11:00:00,
2013-01-20 06:22:00,44.0,29.0,29.89,SSW,200,14.0,15.0,54,-99.99,,,-99.99,,2013-01-20 11:22:00,
2013-01-20 06:32:00,44.0,29.0,29.89,SSW,200,14.0,15.0,54,-99.99,,,-99.99,,2013-01-20 11:32:00,
2013-01-20 06:42:00,44.0,29.0,29.89,SSW,200,14.0,15.0,54,-99.99,,,-99.99,,2013-01-20 11:42:00,
2013-01-20 06:52:00,44.0,29.0,29.89,SSW,200,14.0,15.0,54,-99.99,,,-99.99,,2013-01-20 11:52:00,
2013-01-20 07:00:00,43.0,30.0,29.88,SSW,200,18.0,20.0,59,-99.99,,,-99.99,,2013-01-20 12:00:00,
2013-01-20 07:11:00,43.0,30.0,29.88,SSW,200,18.0,20.0,59,-99.99,,,-99.99,,2013-01-20 12:11:00,
2013-01-20 07:22:00,43.0,30.0,29.88,SSW,200,18.0,20.0,59,-99.99,,,-99.99,,2013-01-20 12:22:00,
2013-01-20 07:32:00,43.0,30.0,29.88,SSW,200,18.0,20.0,59,-99.99,,,-99.99,,2013-01-20 12:32:00,
2013-01-20 07:42:00,43.0,30.0,29.88,SSW,200,18.0,20.0,59,-99.99,,,-99.99,,2013-01-20 12:42:00,
2013-01-20 07:52:00,43.0,30.0,29.88,SSW,200,18.0,20.0,59,-99.99,,,-99.99,,2013-01-20 12:52:00,
2013-01-20 08:00:00,43.0,29.0,29.88,SSW,210,18.0,20.0,58,-99.99,,,-99.99,,2013-01-20 13:00:00,
2013-01-20 08:11:00,43.0,29.0,29.88,SSW,210,18.0,20.0,58,-99.99,,,-99.99,,2013-01-20 13:11:00,
2013-01-20 08:22:00,43.0,29.0,29.88,SSW,210,18.0,20.0,58,-99.99,,,-99.99,,2013-01-20 13:22:00,
2013-01-20 08:32:00,43.0,29.0,29.88,SSW,210,18.0,20.0,58,-99.99,,,-99.99,,2013-01-20 13:32:00,
2013-01-20 08:42:00,43.0,29.0,29.88,SSW,210,18.0,20.0,58,-99.99,,,-99.99,,2013-01-20 13:42:00,
2013-01-20 08:52:00,43.0,29.0,29.88,SSW,210,18.0,20.0,58,-99.99,,,-99.99,,2013-01-20 13:52:00,
2013-01-20 09:00:00,44.0,30.0,29.89,SSW,210,18.0,20.0,58,-99.99,,,-99.99,,2013-01-20 14:00:00,
2013-01-20 09:22:00,44.0,30.0,29.89,SSW,210,18.0,20.0,58,-99.99,,,-99.99,,2013-01-20 14:22:00,
2013-01-20 09:32:00,44.0,30.0,29.89,SSW,210,18.0,20.0,58,-99.99,,,-99.99,,2013-01-20 14:32:00,
2013-01-20 09:42:00,44.0,30.0,29.89,SSW,210,18.0,20.0,58,-99.99,,,-99.99,,2013-01-20 14:42:00,
2013-01-20 09:52:00,44.0,30.0,29.89,SSW,210,18.0,20.0,58,-99.99,,,-99.99,,2013-01-20 14:52:00,
2013-01-20 10:00:00,47.0,28.0,29.90,SW,220,17.0,18.0,46,-99.99,,,-99.99,,2013-01-20 15:00:00,
2013-01-20 10:12:00,47.0,28.0,29.90,SW,220,17.0,18.0,46,-99.99,,,-99.99,,2013-01-20 15:12:00,
2013-01-20 10:22:00,47.0,28.0,29.90,SW,220,17.0,18.0,46,-99.99,,,-99.99,,2013-01-20 15:22:00,
2013-01-20 10:32:00,47.0,28.0,29.90,SW,220,17.0,18.0,46,-99.99,,,-99.99,,2013-01-20 15:32:00,
2013-01-20 10:42:00,47.0,28.0,29.90,SW,220,17.0,18.0,46,-99.99,,,-99.99,,2013-01-20 15:42:00,
2013-01-20 10:52:00,47.0,28.0,29.90,SW,220,17.0,18.0,46,-99.99,,,-99.99,,2013-01-20 15:52:00,
2013-01-20 11:00:00,50.0,29.0,29.88,SSW,210,14.0,16.0,44,-99.99,,,-99.99,,2013-01-20 16:00:00,
2013-01-20 11:11:00,50.0,29.0,29.88,SSW,210,14.0,16.0,44,-99.99,,,-99.99,,2013-01-20 16:11:00,
2013-01-20 11:22:00,50.0,29.0,29.88,SSW,210,14.0,16.0,44,-99.99,,,-99.99,,2013-01-20 16:22:00,
2013-01-20 11:32:00,50.0,29.0,29.88,SSW,210,14.0,16.0,44,-99.99,,,-99.99,,2013-01-20 16:32:00,
2013-01-20 11:42:00,50.0,29.0,29.88,SSW,210,14.0,16.0,44,-99.99,,,-99.99,,2013-01-20 16:42:00,
2013-01-20 11:52:00,50.0,29.0,29.88,SSW,210,14.0,16.0,44,-99.99,,,-99.99,,2013-01-20 16:52:00,
2013-01-20 12:00:00,53.0,30.0,29.85,WSW,250,16.0,20.0,40,-99.99,,,-99.99,,2013-01-20 17:00:00,
2013-01-20 12:12:00,53.0,30.0,29.85,WSW,250,16.0,20.0,40,-99.99,,,-99.99,,2013-01-20 17:12:00,
2013-01-20 12:22:00,53.0,30.0,29.85,WSW,250,16.0,20.0,40,-99.99,,,-99.99,,2013-01-20 17:22:00,
2013-01-20 12:32:00,53.0,30.0,29.85,WSW,250,16.0,20.0,40,-99.99,,,-99.99,,2013-01-20 17:32:00,
2013-01-20 12:42:00,53.0,30.0,29.85,WSW,250,16.0,20.0,40,-99.99,,,-99.99,,2013-01-20 17:42:00,
2013-01-20 12:52:00,53.0,30.0,29.85,WSW,250,16.0,20.0,40,-99.99,,,-99.99,,2013-01-20 17:52:00,
2013-01-20 13:00:00,55.0,27.0,29.83,West,260,24.0,28.0,33,-99.99,,,-99.99,,2013-01-20 18:00:00,
2013-01-20 13:12:00,55.0,27.0,29.83,West,260,24.0,28.0,33,-99.99,,,-99.99,,2013-01-20 18:12:00,
2013-01-20 13:22:00,55.0,27.0,29.83,West,260,24.0,28.0,33,-99.99,,,-99.99,,2013-01-20 18:22:00,
2013-01-20 13:32:00,55.0,27.0,29.83,West,260,24.0,28.0,33,-99.99,,,-99.99,,2013-01-20 18:32:00,
2013-01-20 13:42:00,55.0,27.0,29.83,West,260,24.0,28.0,33,-99.99,,,-99.99,,2013-01-20 18:42:00,
2013-01-20 13:52:00,55.0,27.0,29.83,West,260,24.0,28.0,33,-99.99,,,-99.99,,2013-01-20 18:52:00,
2013-01-20 14:00:00,56.0,27.0,29.84,West,280,24.0,25.0,33,-99.99,,,-99.99,,2013-01-20 19:00:00,
2013-01-20 14:11:00,56.0,27.0,29.84,West,280,24.0,25.0,33,-99.99,,,-99.99,,2013-01-20 19:11:00,
2013-01-20 14:22:00,56.0,27.0,29.84,West,280,24.0,25.0,33,-99.99,,,-99.99,,2013-01-20 19:22:00,
2013-01-20 14:32:00,56.0,27.0,29.84,West,280,24.0,25.0,33,-99.99,,,-99.99,,2013-01-20 19:32:00,
2013-01-20 14:42:00,56.0,27.0,29.84,West,280,24.0,25.0,33,-99.99,,,-99.99,,2013-01-20 19:42:00,
2013-01-20 14:52:00,56.0,27.0,29.84,West,280,24.0,25.0,33,-99.99,,,-99.99,,2013-01-20 19:52:00,
2013-01-20 15:00:00,56.0,23.0,29.85,WNW,300,18.0,21.0,27,-99.99,,,-99.99,,2013-01-20 20:00:00,
2013-01-20 15:12:00,56.0,23.0,29.85,WNW,300,18.0,21.0,27,-99.99,,,-99.99,,2013-01-20 20:12:00,
2013-01-20 15:22:00,56.0,23.0,29.85,WNW,300,18.0,21.0,27,-99.99,,,-99.99,,2013-01-20 20:22:00,
2013-01-20 15:32:00,56.0,23.0,29.85,WNW,300,18.0,21.0,27,-99.99,,,-99.99,,2013-01-20 20:32:00,
2013-01-20 15:42:00,56.0,23.0,29.85,WNW,300,18.0,21.0,27,-99.99,,,-99.99,,2013-01-20 20:42:00,
2013-01-20 15:52:00,56.0,23.0,29.85,WNW,300,18.0,21.0,27,-99.99,,,-99.99,,2013-01-20 20:52:00,
2013-01-20 16:00:00,56.0,-99.9,29.88,WNW,300,25.0,28.0,-999,-99.99,,,-99.99,,2013-01-20 21:00:00,
2013-01-20 16:13:00,56.0,-99.9,29.88,WNW,300,25.0,28.0,-999,-99.99,,,-99.99,,2013-01-20 21:13:00,
2013-01-20 16:23:00,56.0,-99.9,29.88,WNW,300,25.0,28.0,-999,-99.99,,,-99.99,,2013-01-20 21:23:00,
2013-01-20 16:34:00,56.0,-99.9,29.88,WNW,300,25.0,28.0,-999,-99.99,,,-99.99,,2013-01-20 21:34:00,
2013-01-20 16:43:00,56.0,-99.9,29.88,WNW,300,25.0,28.0,-999,-99.99,,,-99.99,,2013-01-20 21:43:00,
2013-01-20 16:54:00,56.0,-99.9,29.88,WNW,300,25.0,28.0,-999,-99.99,,,-99.99,,2013-01-20 21:54:00,
2013-01-20 17:00:00,54.0,-99.9,29.92,WNW,300,23.0,25.0,-999,-99.99,,,-99.99,,2013-01-20 22:00:00,
2013-01-20 17:13:00,54.0,-99.9,29.92,WNW,300,23.0,25.0,-999,-99.99,,,-99.99,,2013-01-20 22:13:00,
2013-01-20 17:23:00,54.0,-99.9,29.92,WNW,300,23.0,25.0,-999,-99.99,,,-99.99,,2013-01-20 22:23:00,
2013-01-20 17:34:00,54.0,-99.9,29.92,WNW,300,23.0,25.0,-999,-99.99,,,-99.99,,2013-01-20 22:34:00,
2013-01-20 17:43:00,54.0,-99.9,29.92,WNW,300,23.0,25.0,-999,-99.99,,,-99.99,,2013-01-20 22:43:00,
2013-01-20 17:53:00,54.0,-99.9,29.92,WNW,300,23.0,25.0,-999,-99.99,,,-99.99,,2013-01-20 22:53:00,
2013-01-20 18:00:00,51.0,-99.9,29.96,NW,320,17.0,20.0,-999,-99.99,,,-99.99,,2013-01-20 23:00:00,
2013-01-20 18:13:00,51.0,-99.9,29.96,NW,320,17.0,20.0,-999,-99.99,,,-99.99,,2013-01-20 23:13:00,
2013-01-20 18:23:00,51.0,-99.9,29.96,NW,320,17.0,20.0,-999,-99.99,,,-99.99,,2013-01-20 23:23:00,
2013-01-20 18:33:00,51.0,-99.9,29.96,NW,320,17.0,20.0,-999,-99.99,,,-99.99,,2013-01-20 23:33:00,
2013-01-20 18:43:00,51.0,-99.9,29.96,NW,320,17.0,20.0,-999,-99.99,,,-99.99,,2013-01-20 23:43:00,
2013-01-20 18:53:00,51.0,-99.9,29.96,NW,320,17.0,20.0,-999,-99.99,,,-99.99,,2013-01-20 23:53:00,
2013-01-20 19:00:00,48.0,-99.9,30.00,NW,310,17.0,23.0,-999,-99.99,,,-99.99,,2013-01-21 00:00:00,
2013-01-20 19:13:00,48.0,-99.9,30.00,NW,310,17.0,23.0,-999,-99.99,,,-99.99,,2013-01-21 00:13:00,
2013-01-20 19:23:00,48.0,-99.9,30.00,NW,310,17.0,23.0,-999,-99.99,,,-99.99,,2013-01-21 00:23:00,
2013-01-20 19:33:00,48.0,-99.9,30.00,NW,310,17.0,23.0,-999,-99.99,,,-99.99,,2013-01-21 00:33:00,
2013-01-20 19:43:00,48.0,-99.9,30.00,NW,310,17.0,23.0,-999,-99.99,,,-99.99,,2013-01-21 00:43:00,
2013-01-20 19:54:00,48.0,-99.9,30.00,NW,310,17.0,23.0,-999,-99.99,,,-99.99,,2013-01-21 00:54:00,
2013-01-20 20:00:00,46.0,13.0,30.03,NW,310,14.0,16.0,26,-99.99,,,-99.99,,2013-01-21 01:00:00,
2013-01-20 20:11:00,46.0,13.0,30.03,NW,310,14.0,16.0,26,-99.99,,,-99.99,,2013-01-21 01:11:00,
2013-01-20 20:22:00,46.0,13.0,30.03,NW,310,14.0,16.0,26,-99.99,,,-99.99,,2013-01-21 01:22:00,
2013-01-20 20:32:00,46.0,13.0,30.03,NW,310,14.0,16.0,26,-99.99,,,-99.99,,2013-01-21 01:32:00,
2013-01-20 20:42:00,46.0,13.0,30.03,NW,310,14.0,16.0,26,-99.99,,,-99.99,,2013-01-21 01:42:00,
2013-01-20 20:52:00,46.0,13.0,30.03,NW,310,14.0,16.0,26,-99.99,,,-99.99,,2013-01-21 01:52:00,
2013-01-20 21:00:00,43.0,13.0,30.07,NW,320,10.0,11.0,29,-99.99,,,-99.99,,2013-01-21 02:00:00,
2013-01-20 21:11:00,43.0,13.0,30.07,NW,320,10.0,11.0,29,-99.99,,,-99.99,,2013-01-21 02:11:00,
2013-01-20 21:42:00,43.0,13.0,30.07,NW,320,10.0,11.0,29,-99.99,,,-99.99,,2013-01-21 02:42:00,
2013-01-20 21:52:00,43.0,13.0,30.07,NW,320,10.0,11.0,29,-99.99,,,-99.99,,2013-01-21 02:52:00,
2013-01-20 22:00:00,42.0,13.0,30.09,NW,310,7.0,7.0,31,-99.99,,,-99.99,,2013-01-21 03:00:00,
2013-01-20 22:11:00,42.0,13.0,30.09,NW,310,7.0,7.0,31,-99.99,,,-99.99,,2013-01-21 03:11:00,
2013-01-20 22:22:00,42.0,13.0,30.09,NW,310,7.0,7.0,31,-99.99,,,-99.99,,2013-01-21 03:22:00,
2013-01-20 22:32:00,42.0,13.0,30.09,NW,310,7.0,7.0,31,-99.99,,,-99.99,,2013-01-21 03:32:00,
2013-01-20 22:42:00,42.0,13.0,30.09,NW,310,7.0,7.0,31,-99.99,,,-99.99,,2013-01-21 03:42:00,
2013-01-20 22:52:00,42.0,13.0,30.09,NW,310,7.0,7.0,31,-99.99,,,-99.99,,2013-01-21 03:52:00,
2013-01-20 23:00:00,41.0,12.0,30.10,WNW,300,3.0,5.0,30,-99.99,,,-99.99,,2013-01-21 04:00:00,
2013-01-20 23:11:00,41.0,12.0,30.10,WNW,300,3.0,5.0,30,-99.99,,,-99.99,,2013-01-21 04:11:00,
2013-01-20 23:22:00,41.0,12.0,30.10,WNW,300,3.0,5.0,30,-99.99,,,-99.99,,2013-01-21 04:22:00,
2013-01-20 23:32:00,41.0,12.0,30.10,WNW,300,3.0,5.0,30,-99.99,,,-99.99,,2013-01-21 04:32:00,
2013-01-20 23:42:00,41.0,12.0,30.10,WNW,300,3.0,5.0,30,-99.99,,,-99.99,,2013-01-21 04:42:00,
2013-01-20 23:52:00,41.0,12.0,30.10,WNW,300,3.0,5.0,30,-99.99,,,-99.99,,2013-01-21 04:52:00,